sensor_id;sensor_type;location;lat;lon;timestamp;temperature;humidity
19164;DHT22;9714;51.208;4.242;2023-06-19T00:02:21;21.30;99.90
19164;DHT22;9714;51.208;4.242;2023-06-19T00:04:49;21.30;99.90
19164;DHT22;9714;51.208;4.242;2023-06-19T00:07:16;21.20;99.90
19164;DHT22;9714;51.208;4.242;2023-06-19T00:09:44;21.10;99.90
19164;DHT22;9714;51.208;4.242;2023-06-19T00:15:30;21.10;99.90
19164;DHT22;9714;51.208;4.242;2023-06-19T00:17:58;21.20;99.90
19164;DHT22;9714;51.208;4.242;2023-06-19T00:20:25;21.30;99.90
19164;DHT22;9714;51.208;4.242;2023-06-19T00:22:53;21.10;99.90
19164;DHT22;9714;51.208;4.242;2023-06-19T00:25:20;21.10;99.90
19164;DHT22;9714;51.208;4.242;2023-06-19T00:27:47;21.20;99.90
19164;DHT22;9714;51.208;4.242;2023-06-19T00:30:16;21.20;99.90
19164;DHT22;9714;51.208;4.242;2023-06-19T00:32:45;21.30;99.90
19164;DHT22;9714;51.208;4.242;2023-06-19T00:35:17;21.30;99.90
19164;DHT22;9714;51.208;4.242;2023-06-19T00:37:45;21.30;99.90
19164;DHT22;9714;51.208;4.242;2023-06-19T00:40:21;21.30;99.90
19164;DHT22;9714;51.208;4.242;2023-06-19T00:42:51;21.10;99.90
19164;DHT22;9714;51.208;4.242;2023-06-19T00:45:20;21.20;99.90
19164;DHT22;9714;51.208;4.242;2023-06-19T00:47:48;21.30;99.90
19164;DHT22;9714;51.208;4.242;2023-06-19T00:50:16;21.50;99.90
19164;DHT22;9714;51.208;4.242;2023-06-19T00:52:44;21.50;99.90
19164;DHT22;9714;51.208;4.242;2023-06-19T00:55:11;21.30;99.90
19164;DHT22;9714;51.208;4.242;2023-06-19T00:57:45;21.30;99.90
19164;DHT22;9714;51.208;4.242;2023-06-19T01:00:14;21.20;99.90
19164;DHT22;9714;51.208;4.242;2023-06-19T01:02:42;21.10;99.90
19164;DHT22;9714;51.208;4.242;2023-06-19T01:05:11;21.20;99.90
19164;DHT22;9714;51.208;4.242;2023-06-19T01:07:44;21.20;99.90
19164;DHT22;9714;51.208;4.242;2023-06-19T01:10:20;21.00;99.90
19164;DHT22;9714;51.208;4.242;2023-06-19T01:12:58;21.10;99.90
19164;DHT22;9714;51.208;4.242;2023-06-19T01:15:45;21.10;99.90
19164;DHT22;9714;51.208;4.242;2023-06-19T01:18:21;21.10;99.90
19164;DHT22;9714;51.208;4.242;2023-06-19T01:20:54;21.20;99.90
19164;DHT22;9714;51.208;4.242;2023-06-19T01:23:24;21.30;99.90
19164;DHT22;9714;51.208;4.242;2023-06-19T01:25:52;21.30;99.90
19164;DHT22;9714;51.208;4.242;2023-06-19T01:28:19;21.20;99.90
19164;DHT22;9714;51.208;4.242;2023-06-19T01:30:47;21.20;99.90
19164;DHT22;9714;51.208;4.242;2023-06-19T01:33:19;21.10;99.90
19164;DHT22;9714;51.208;4.242;2023-06-19T01:35:48;21.20;99.90
19164;DHT22;9714;51.208;4.242;2023-06-19T01:38:17;21.30;99.90
19164;DHT22;9714;51.208;4.242;2023-06-19T01:40:48;21.30;99.90
19164;DHT22;9714;51.208;4.242;2023-06-19T01:43:17;21.30;99.90
19164;DHT22;9714;51.208;4.242;2023-06-19T01:45:46;21.20;99.90
19164;DHT22;9714;51.208;4.242;2023-06-19T01:48:13;21.20;99.90
19164;DHT22;9714;51.208;4.242;2023-06-19T01:50:44;21.20;99.90
19164;DHT22;9714;51.208;4.242;2023-06-19T01:53:12;21.10;99.90
19164;DHT22;9714;51.208;4.242;2023-06-19T01:55:39;21.20;99.90
19164;DHT22;9714;51.208;4.242;2023-06-19T01:58:08;21.20;99.90
19164;DHT22;9714;51.208;4.242;2023-06-19T02:00:35;21.30;99.90
19164;DHT22;9714;51.208;4.242;2023-06-19T02:03:03;21.30;99.90
19164;DHT22;9714;51.208;4.242;2023-06-19T02:05:30;21.10;99.90
19164;DHT22;9714;51.208;4.242;2023-06-19T02:08:00;21.20;99.90
19164;DHT22;9714;51.208;4.242;2023-06-19T02:10:31;21.20;99.90
19164;DHT22;9714;51.208;4.242;2023-06-19T02:12:59;21.30;99.90
19164;DHT22;9714;51.208;4.242;2023-06-19T02:15:28;21.40;99.90
19164;DHT22;9714;51.208;4.242;2023-06-19T02:17:56;21.40;99.90
19164;DHT22;9714;51.208;4.242;2023-06-19T02:20:29;21.40;99.90
19164;DHT22;9714;51.208;4.242;2023-06-19T02:23:00;21.40;99.90
19164;DHT22;9714;51.208;4.242;2023-06-19T02:25:54;21.50;99.90
19164;DHT22;9714;51.208;4.242;2023-06-19T02:28:35;21.50;99.90
19164;DHT22;9714;51.208;4.242;2023-06-19T02:31:10;21.50;99.90
19164;DHT22;9714;51.208;4.242;2023-06-19T02:33:39;21.50;99.90
19164;DHT22;9714;51.208;4.242;2023-06-19T02:36:10;21.50;99.90
19164;DHT22;9714;51.208;4.242;2023-06-19T02:38:38;21.40;99.90
19164;DHT22;9714;51.208;4.242;2023-06-19T02:41:08;21.60;99.90
19164;DHT22;9714;51.208;4.242;2023-06-19T02:43:35;21.50;99.90
19164;DHT22;9714;51.208;4.242;2023-06-19T02:46:03;21.40;99.90
19164;DHT22;9714;51.208;4.242;2023-06-19T02:48:32;21.40;99.90
19164;DHT22;9714;51.208;4.242;2023-06-19T02:50:59;21.40;99.90
19164;DHT22;9714;51.208;4.242;2023-06-19T02:53:27;21.30;99.90
19164;DHT22;9714;51.208;4.242;2023-06-19T02:55:55;21.10;99.90
19164;DHT22;9714;51.208;4.242;2023-06-19T02:58:22;21.10;99.90
19164;DHT22;9714;51.208;4.242;2023-06-19T03:00:51;21.20;99.90
19164;DHT22;9714;51.208;4.242;2023-06-19T03:03:18;21.00;99.90
19164;DHT22;9714;51.208;4.242;2023-06-19T03:05:47;21.00;99.90
19164;DHT22;9714;51.208;4.242;2023-06-19T03:08:14;20.80;99.90
19164;DHT22;9714;51.208;4.242;2023-06-19T03:10:42;20.80;99.90
19164;DHT22;9714;51.208;4.242;2023-06-19T03:13:09;20.80;99.90
19164;DHT22;9714;51.208;4.242;2023-06-19T03:15:37;20.60;99.90
19164;DHT22;9714;51.208;4.242;2023-06-19T03:18:04;20.60;99.90
19164;DHT22;9714;51.208;4.242;2023-06-19T03:20:34;20.70;99.90
19164;DHT22;9714;51.208;4.242;2023-06-19T03:23:03;20.60;99.90
19164;DHT22;9714;51.208;4.242;2023-06-19T03:25:30;20.60;99.90
19164;DHT22;9714;51.208;4.242;2023-06-19T03:28:00;20.60;99.90
19164;DHT22;9714;51.208;4.242;2023-06-19T03:30:29;20.50;99.90
19164;DHT22;9714;51.208;4.242;2023-06-19T03:32:57;20.40;99.90
19164;DHT22;9714;51.208;4.242;2023-06-19T03:35:28;20.40;99.90
19164;DHT22;9714;51.208;4.242;2023-06-19T03:37:56;20.60;99.90
19164;DHT22;9714;51.208;4.242;2023-06-19T03:40:25;20.60;99.90
19164;DHT22;9714;51.208;4.242;2023-06-19T03:42:52;20.60;99.90
19164;DHT22;9714;51.208;4.242;2023-06-19T03:45:21;20.60;99.90
19164;DHT22;9714;51.208;4.242;2023-06-19T03:47:51;20.50;99.90
19164;DHT22;9714;51.208;4.242;2023-06-19T03:50:19;20.50;99.90
19164;DHT22;9714;51.208;4.242;2023-06-19T03:52:47;20.40;99.90
19164;DHT22;9714;51.208;4.242;2023-06-19T03:55:14;20.50;99.90
19164;DHT22;9714;51.208;4.242;2023-06-19T03:57:43;20.70;99.90
19164;DHT22;9714;51.208;4.242;2023-06-19T04:00:13;20.60;99.90
19164;DHT22;9714;51.208;4.242;2023-06-19T04:02:41;20.50;99.90
19164;DHT22;9714;51.208;4.242;2023-06-19T04:05:08;20.60;99.90
19164;DHT22;9714;51.208;4.242;2023-06-19T04:07:36;20.40;99.90
19164;DHT22;9714;51.208;4.242;2023-06-19T04:10:05;20.30;99.90
19164;DHT22;9714;51.208;4.242;2023-06-19T04:12:32;20.30;99.90
19164;DHT22;9714;51.208;4.242;2023-06-19T04:15:01;20.40;99.90
19164;DHT22;9714;51.208;4.242;2023-06-19T04:17:29;20.30;99.90
19164;DHT22;9714;51.208;4.242;2023-06-19T04:19:57;20.40;99.90
19164;DHT22;9714;51.208;4.242;2023-06-19T04:22:25;20.40;99.90
19164;DHT22;9714;51.208;4.242;2023-06-19T04:24:55;20.20;99.90
19164;DHT22;9714;51.208;4.242;2023-06-19T04:27:23;20.10;99.90
19164;DHT22;9714;51.208;4.242;2023-06-19T04:29:56;20.00;99.90
19164;DHT22;9714;51.208;4.242;2023-06-19T04:32:25;19.90;99.90
19164;DHT22;9714;51.208;4.242;2023-06-19T04:34:52;20.00;99.90
19164;DHT22;9714;51.208;4.242;2023-06-19T04:37:19;20.10;99.90
19164;DHT22;9714;51.208;4.242;2023-06-19T04:39:47;20.10;99.90
19164;DHT22;9714;51.208;4.242;2023-06-19T04:42:17;20.10;99.90
19164;DHT22;9714;51.208;4.242;2023-06-19T04:44:46;20.20;99.90
19164;DHT22;9714;51.208;4.242;2023-06-19T04:47:13;20.10;99.90
19164;DHT22;9714;51.208;4.242;2023-06-19T04:49:43;20.10;99.90
19164;DHT22;9714;51.208;4.242;2023-06-19T04:52:10;20.00;99.90
19164;DHT22;9714;51.208;4.242;2023-06-19T04:54:38;20.10;99.90
19164;DHT22;9714;51.208;4.242;2023-06-19T04:57:06;20.20;99.90
19164;DHT22;9714;51.208;4.242;2023-06-19T04:59:34;20.20;99.90
19164;DHT22;9714;51.208;4.242;2023-06-19T05:02:01;20.40;99.90
19164;DHT22;9714;51.208;4.242;2023-06-19T05:04:29;20.30;99.90
19164;DHT22;9714;51.208;4.242;2023-06-19T05:07:00;20.30;99.90
19164;DHT22;9714;51.208;4.242;2023-06-19T05:09:27;20.30;99.90
19164;DHT22;9714;51.208;4.242;2023-06-19T05:11:56;20.30;99.90
19164;DHT22;9714;51.208;4.242;2023-06-19T05:14:26;20.30;99.90
19164;DHT22;9714;51.208;4.242;2023-06-19T05:17:01;20.40;99.90
19164;DHT22;9714;51.208;4.242;2023-06-19T05:19:29;20.40;99.90
19164;DHT22;9714;51.208;4.242;2023-06-19T05:21:59;20.40;99.90
19164;DHT22;9714;51.208;4.242;2023-06-19T05:24:32;20.40;99.90
19164;DHT22;9714;51.208;4.242;2023-06-19T05:27:00;20.50;99.90
19164;DHT22;9714;51.208;4.242;2023-06-19T05:29:27;20.70;99.90
19164;DHT22;9714;51.208;4.242;2023-06-19T05:31:56;20.80;99.90
19164;DHT22;9714;51.208;4.242;2023-06-19T05:34:24;20.70;99.90
19164;DHT22;9714;51.208;4.242;2023-06-19T05:36:56;21.00;99.90
19164;DHT22;9714;51.208;4.242;2023-06-19T05:39:44;21.00;99.90
19164;DHT22;9714;51.208;4.242;2023-06-19T05:42:13;20.90;99.90
19164;DHT22;9714;51.208;4.242;2023-06-19T05:44:54;20.80;99.90
19164;DHT22;9714;51.208;4.242;2023-06-19T05:47:23;20.70;99.90
19164;DHT22;9714;51.208;4.242;2023-06-19T05:49:53;20.80;99.90
19164;DHT22;9714;51.208;4.242;2023-06-19T05:52:22;21.00;99.90
19164;DHT22;9714;51.208;4.242;2023-06-19T05:54:58;21.10;99.90
19164;DHT22;9714;51.208;4.242;2023-06-19T05:57:31;21.10;99.90
19164;DHT22;9714;51.208;4.242;2023-06-19T06:00:00;21.00;99.90
19164;DHT22;9714;51.208;4.242;2023-06-19T06:02:33;21.10;99.90
19164;DHT22;9714;51.208;4.242;2023-06-19T06:05:11;21.10;99.90
19164;DHT22;9714;51.208;4.242;2023-06-19T06:07:39;21.00;99.90
19164;DHT22;9714;51.208;4.242;2023-06-19T06:10:30;21.00;99.90
19164;DHT22;9714;51.208;4.242;2023-06-19T06:13:26;21.00;99.90
19164;DHT22;9714;51.208;4.242;2023-06-19T06:16:11;21.00;99.90
19164;DHT22;9714;51.208;4.242;2023-06-19T06:18:45;20.80;99.90
19164;DHT22;9714;51.208;4.242;2023-06-19T06:21:36;20.60;99.90
19164;DHT22;9714;51.208;4.242;2023-06-19T06:24:28;20.70;99.90
19164;DHT22;9714;51.208;4.242;2023-06-19T06:26:58;20.80;99.90
19164;DHT22;9714;51.208;4.242;2023-06-19T06:29:27;20.90;99.90
19164;DHT22;9714;51.208;4.242;2023-06-19T06:32:03;21.30;99.90
19164;DHT22;9714;51.208;4.242;2023-06-19T06:34:33;21.60;99.90
19164;DHT22;9714;51.208;4.242;2023-06-19T06:37:14;21.60;99.90
19164;DHT22;9714;51.208;4.242;2023-06-19T06:39:59;21.80;99.90
19164;DHT22;9714;51.208;4.242;2023-06-19T06:45:51;21.90;99.90
19164;DHT22;9714;51.208;4.242;2023-06-19T06:48:47;22.20;99.90
19164;DHT22;9714;51.208;4.242;2023-06-19T06:51:33;21.90;99.90
19164;DHT22;9714;51.208;4.242;2023-06-19T06:54:14;22.00;99.90
19164;DHT22;9714;51.208;4.242;2023-06-19T06:56:45;22.10;99.90
19164;DHT22;9714;51.208;4.242;2023-06-19T06:59:16;22.10;99.90
19164;DHT22;9714;51.208;4.242;2023-06-19T07:01:46;22.10;99.90
19164;DHT22;9714;51.208;4.242;2023-06-19T07:04:18;22.10;99.90
19164;DHT22;9714;51.208;4.242;2023-06-19T07:06:45;21.80;99.90
19164;DHT22;9714;51.208;4.242;2023-06-19T07:09:37;21.90;99.90
19164;DHT22;9714;51.208;4.242;2023-06-19T07:12:08;22.00;99.90
19164;DHT22;9714;51.208;4.242;2023-06-19T07:14:43;22.20;99.90
19164;DHT22;9714;51.208;4.242;2023-06-19T07:17:34;22.20;99.90
19164;DHT22;9714;51.208;4.242;2023-06-19T07:20:01;22.10;99.90
19164;DHT22;9714;51.208;4.242;2023-06-19T07:22:31;21.90;99.90
19164;DHT22;9714;51.208;4.242;2023-06-19T07:25:04;22.10;99.90
19164;DHT22;9714;51.208;4.242;2023-06-19T07:27:37;22.40;99.90
19164;DHT22;9714;51.208;4.242;2023-06-19T07:30:08;22.50;99.90
19164;DHT22;9714;51.208;4.242;2023-06-19T07:33:05;22.30;99.90
19164;DHT22;9714;51.208;4.242;2023-06-19T07:35:42;22.30;99.90
19164;DHT22;9714;51.208;4.242;2023-06-19T07:38:23;22.10;99.90
19164;DHT22;9714;51.208;4.242;2023-06-19T07:40:56;22.20;99.90
19164;DHT22;9714;51.208;4.242;2023-06-19T07:43:39;22.30;99.90
19164;DHT22;9714;51.208;4.242;2023-06-19T07:46:17;22.70;99.90
19164;DHT22;9714;51.208;4.242;2023-06-19T07:48:46;22.80;99.90
19164;DHT22;9714;51.208;4.242;2023-06-19T07:51:16;22.80;99.90
19164;DHT22;9714;51.208;4.242;2023-06-19T07:53:47;23.10;99.90
19164;DHT22;9714;51.208;4.242;2023-06-19T07:56:15;23.40;99.90
19164;DHT22;9714;51.208;4.242;2023-06-19T07:58:48;23.30;99.90
19164;DHT22;9714;51.208;4.242;2023-06-19T08:01:19;23.00;99.90
19164;DHT22;9714;51.208;4.242;2023-06-19T08:03:48;23.40;99.90
19164;DHT22;9714;51.208;4.242;2023-06-19T08:06:19;23.30;99.90
19164;DHT22;9714;51.208;4.242;2023-06-19T08:08:49;23.10;99.90
19164;DHT22;9714;51.208;4.242;2023-06-19T08:11:20;23.40;99.90
19164;DHT22;9714;51.208;4.242;2023-06-19T08:13:48;23.60;99.90
19164;DHT22;9714;51.208;4.242;2023-06-19T08:16:17;23.40;99.90
19164;DHT22;9714;51.208;4.242;2023-06-19T08:18:52;23.50;99.90
19164;DHT22;9714;51.208;4.242;2023-06-19T08:21:22;23.50;99.90
19164;DHT22;9714;51.208;4.242;2023-06-19T08:23:52;23.40;99.90
19164;DHT22;9714;51.208;4.242;2023-06-19T08:26:21;23.60;99.90
19164;DHT22;9714;51.208;4.242;2023-06-19T08:28:51;23.90;99.90
19164;DHT22;9714;51.208;4.242;2023-06-19T08:31:20;24.20;99.90
19164;DHT22;9714;51.208;4.242;2023-06-19T08:33:55;24.30;99.90
19164;DHT22;9714;51.208;4.242;2023-06-19T08:36:25;24.40;99.90
19164;DHT22;9714;51.208;4.242;2023-06-19T08:38:59;24.80;99.90
19164;DHT22;9714;51.208;4.242;2023-06-19T08:41:27;24.70;99.90
19164;DHT22;9714;51.208;4.242;2023-06-19T08:43:55;24.90;99.90
19164;DHT22;9714;51.208;4.242;2023-06-19T08:46:23;24.50;99.90
19164;DHT22;9714;51.208;4.242;2023-06-19T08:48:56;24.40;99.90
19164;DHT22;9714;51.208;4.242;2023-06-19T08:51:26;24.20;99.90
19164;DHT22;9714;51.208;4.242;2023-06-19T08:53:56;24.70;99.90
19164;DHT22;9714;51.208;4.242;2023-06-19T08:56:25;25.40;99.90
19164;DHT22;9714;51.208;4.242;2023-06-19T08:59:08;26.40;99.90
19164;DHT22;9714;51.208;4.242;2023-06-19T09:01:37;27.00;99.90
19164;DHT22;9714;51.208;4.242;2023-06-19T09:04:12;26.90;99.90
19164;DHT22;9714;51.208;4.242;2023-06-19T09:06:51;27.10;99.90
19164;DHT22;9714;51.208;4.242;2023-06-19T09:09:21;27.40;99.90
19164;DHT22;9714;51.208;4.242;2023-06-19T09:12:03;27.60;99.90
19164;DHT22;9714;51.208;4.242;2023-06-19T09:14:36;27.70;99.90
19164;DHT22;9714;51.208;4.242;2023-06-19T09:17:06;28.40;99.90
19164;DHT22;9714;51.208;4.242;2023-06-19T09:19:50;28.70;99.90
19164;DHT22;9714;51.208;4.242;2023-06-19T09:22:28;28.30;99.90
19164;DHT22;9714;51.208;4.242;2023-06-19T09:25:00;27.90;99.90
19164;DHT22;9714;51.208;4.242;2023-06-19T09:27:32;28.10;99.90
19164;DHT22;9714;51.208;4.242;2023-06-19T09:30:04;28.60;99.90
19164;DHT22;9714;51.208;4.242;2023-06-19T09:32:39;29.50;99.90
19164;DHT22;9714;51.208;4.242;2023-06-19T09:35:15;30.40;98.30
19164;DHT22;9714;51.208;4.242;2023-06-19T09:37:49;30.80;96.10
19164;DHT22;9714;51.208;4.242;2023-06-19T09:40:19;30.70;95.40
19164;DHT22;9714;51.208;4.242;2023-06-19T09:42:48;30.80;94.40
19164;DHT22;9714;51.208;4.242;2023-06-19T09:45:27;29.80;94.60
19164;DHT22;9714;51.208;4.242;2023-06-19T09:47:57;29.50;95.20
19164;DHT22;9714;51.208;4.242;2023-06-19T09:50:27;29.40;95.90
19164;DHT22;9714;51.208;4.242;2023-06-19T09:53:02;29.40;95.20
19164;DHT22;9714;51.208;4.242;2023-06-19T09:55:31;28.80;96.20
19164;DHT22;9714;51.208;4.242;2023-06-19T09:58:01;29.00;95.90
19164;DHT22;9714;51.208;4.242;2023-06-19T10:00:35;29.00;95.70
19164;DHT22;9714;51.208;4.242;2023-06-19T10:03:12;29.00;95.80
19164;DHT22;9714;51.208;4.242;2023-06-19T10:05:42;29.20;95.70
19164;DHT22;9714;51.208;4.242;2023-06-19T10:08:09;30.10;95.20
19164;DHT22;9714;51.208;4.242;2023-06-19T10:10:47;30.50;93.30
19164;DHT22;9714;51.208;4.242;2023-06-19T10:13:18;30.20;93.30
19164;DHT22;9714;51.208;4.242;2023-06-19T10:15:46;29.70;93.40
19164;DHT22;9714;51.208;4.242;2023-06-19T10:18:16;29.40;93.80
19164;DHT22;9714;51.208;4.242;2023-06-19T10:20:48;28.10;95.20
19164;DHT22;9714;51.208;4.242;2023-06-19T10:23:17;28.60;95.40
19164;DHT22;9714;51.208;4.242;2023-06-19T10:25:57;29.90;94.80
19164;DHT22;9714;51.208;4.242;2023-06-19T10:28:33;30.60;92.60
19164;DHT22;9714;51.208;4.242;2023-06-19T10:31:03;31.80;91.20
19164;DHT22;9714;51.208;4.242;2023-06-19T10:33:33;33.10;87.50
19164;DHT22;9714;51.208;4.242;2023-06-19T10:36:15;33.40;83.50
19164;DHT22;9714;51.208;4.242;2023-06-19T10:38:44;32.20;83.80
19164;DHT22;9714;51.208;4.242;2023-06-19T10:41:15;32.40;82.70
19164;DHT22;9714;51.208;4.242;2023-06-19T10:44:00;32.00;82.60
19164;DHT22;9714;51.208;4.242;2023-06-19T10:46:40;31.60;84.00
19164;DHT22;9714;51.208;4.242;2023-06-19T10:49:16;31.80;82.20
19164;DHT22;9714;51.208;4.242;2023-06-19T10:51:48;32.70;80.30
19164;DHT22;9714;51.208;4.242;2023-06-19T10:54:22;33.90;77.60
19164;DHT22;9714;51.208;4.242;2023-06-19T10:56:51;34.40;75.70
19164;DHT22;9714;51.208;4.242;2023-06-19T10:59:34;33.60;73.70
19164;DHT22;9714;51.208;4.242;2023-06-19T11:02:18;33.50;73.00
19164;DHT22;9714;51.208;4.242;2023-06-19T11:04:48;32.50;74.60
19164;DHT22;9714;51.208;4.242;2023-06-19T11:07:38;32.40;74.60
19164;DHT22;9714;51.208;4.242;2023-06-19T11:10:20;32.70;74.60
19164;DHT22;9714;51.208;4.242;2023-06-19T11:12:56;32.70;73.70
19164;DHT22;9714;51.208;4.242;2023-06-19T11:15:30;33.40;70.60
19164;DHT22;9714;51.208;4.242;2023-06-19T11:18:00;32.70;71.90
19164;DHT22;9714;51.208;4.242;2023-06-19T11:20:29;33.10;70.60
19164;DHT22;9714;51.208;4.242;2023-06-19T11:22:59;33.00;71.40
19164;DHT22;9714;51.208;4.242;2023-06-19T11:25:42;32.90;71.30
19164;DHT22;9714;51.208;4.242;2023-06-19T11:28:19;33.40;68.60
19164;DHT22;9714;51.208;4.242;2023-06-19T11:30:59;34.10;67.80
19164;DHT22;9714;51.208;4.242;2023-06-19T11:33:29;33.20;66.60
19164;DHT22;9714;51.208;4.242;2023-06-19T11:36:00;32.70;69.50
19164;DHT22;9714;51.208;4.242;2023-06-19T11:38:38;32.90;68.10
19164;DHT22;9714;51.208;4.242;2023-06-19T11:41:13;32.40;68.60
19164;DHT22;9714;51.208;4.242;2023-06-19T11:44:04;31.30;70.70
19164;DHT22;9714;51.208;4.242;2023-06-19T11:46:33;30.60;72.50
19164;DHT22;9714;51.208;4.242;2023-06-19T11:49:11;31.40;72.40
19164;DHT22;9714;51.208;4.242;2023-06-19T11:51:40;32.30;69.90
19164;DHT22;9714;51.208;4.242;2023-06-19T11:54:10;32.60;68.30
19164;DHT22;9714;51.208;4.242;2023-06-19T11:56:41;33.20;67.50
19164;DHT22;9714;51.208;4.242;2023-06-19T11:59:11;32.20;67.90
19164;DHT22;9714;51.208;4.242;2023-06-19T12:01:40;32.60;70.10
19164;DHT22;9714;51.208;4.242;2023-06-19T12:07:36;36.30;61.60
19164;DHT22;9714;51.208;4.242;2023-06-19T12:10:19;36.50;59.00
19164;DHT22;9714;51.208;4.242;2023-06-19T12:12:50;37.50;57.10
19164;DHT22;9714;51.208;4.242;2023-06-19T12:15:22;37.90;55.80
19164;DHT22;9714;51.208;4.242;2023-06-19T12:17:51;37.00;53.20
19164;DHT22;9714;51.208;4.242;2023-06-19T12:20:21;36.90;54.10
19164;DHT22;9714;51.208;4.242;2023-06-19T12:22:49;37.10;54.20
19164;DHT22;9714;51.208;4.242;2023-06-19T12:28:35;36.90;51.80
19164;DHT22;9714;51.208;4.242;2023-06-19T12:31:06;36.60;52.80
19164;DHT22;9714;51.208;4.242;2023-06-19T12:33:40;36.10;53.30
19164;DHT22;9714;51.208;4.242;2023-06-19T12:36:11;36.10;53.30
19164;DHT22;9714;51.208;4.242;2023-06-19T12:38:42;36.40;53.60
19164;DHT22;9714;51.208;4.242;2023-06-19T12:44:24;38.30;51.70
19164;DHT22;9714;51.208;4.242;2023-06-19T12:46:52;38.40;51.00
19164;DHT22;9714;51.208;4.242;2023-06-19T12:49:20;38.00;51.20
19164;DHT22;9714;51.208;4.242;2023-06-19T12:51:47;38.40;49.90
19164;DHT22;9714;51.208;4.242;2023-06-19T12:54:19;37.80;50.00
19164;DHT22;9714;51.208;4.242;2023-06-19T12:56:49;38.50;50.30
19164;DHT22;9714;51.208;4.242;2023-06-19T12:59:17;38.90;49.30
19164;DHT22;9714;51.208;4.242;2023-06-19T13:01:50;39.00;49.10
19164;DHT22;9714;51.208;4.242;2023-06-19T13:04:20;38.90;48.80
19164;DHT22;9714;51.208;4.242;2023-06-19T13:06:48;37.90;49.50
19164;DHT22;9714;51.208;4.242;2023-06-19T13:09:16;38.20;48.40
19164;DHT22;9714;51.208;4.242;2023-06-19T13:11:48;39.10;47.90
19164;DHT22;9714;51.208;4.242;2023-06-19T13:14:17;39.00;48.20
19164;DHT22;9714;51.208;4.242;2023-06-19T13:16:45;39.40;48.60
19164;DHT22;9714;51.208;4.242;2023-06-19T13:19:17;39.20;47.60
19164;DHT22;9714;51.208;4.242;2023-06-19T13:21:45;39.50;47.00
19164;DHT22;9714;51.208;4.242;2023-06-19T13:24:15;37.70;47.90
19164;DHT22;9714;51.208;4.242;2023-06-19T13:26:49;35.10;50.60
19164;DHT22;9714;51.208;4.242;2023-06-19T13:29:19;34.10;52.10
19164;DHT22;9714;51.208;4.242;2023-06-19T13:31:49;33.80;53.00
19164;DHT22;9714;51.208;4.242;2023-06-19T13:34:36;34.80;52.40
19164;DHT22;9714;51.208;4.242;2023-06-19T13:37:06;36.90;49.80
19164;DHT22;9714;51.208;4.242;2023-06-19T13:39:49;37.10;49.90
19164;DHT22;9714;51.208;4.242;2023-06-19T13:42:24;36.90;49.80
19164;DHT22;9714;51.208;4.242;2023-06-19T13:44:56;37.90;49.70
19164;DHT22;9714;51.208;4.242;2023-06-19T13:47:26;38.70;48.40
19164;DHT22;9714;51.208;4.242;2023-06-19T13:49:55;39.30;46.90
19164;DHT22;9714;51.208;4.242;2023-06-19T13:52:23;39.00;46.40
19164;DHT22;9714;51.208;4.242;2023-06-19T13:54:58;38.40;46.70
19164;DHT22;9714;51.208;4.242;2023-06-19T13:57:28;38.70;46.60
19164;DHT22;9714;51.208;4.242;2023-06-19T13:59:56;38.10;46.90
19164;DHT22;9714;51.208;4.242;2023-06-19T14:02:27;38.80;46.40
19164;DHT22;9714;51.208;4.242;2023-06-19T14:04:56;39.40;47.00
19164;DHT22;9714;51.208;4.242;2023-06-19T14:07:30;39.30;45.80
19164;DHT22;9714;51.208;4.242;2023-06-19T14:09:57;39.60;45.90
19164;DHT22;9714;51.208;4.242;2023-06-19T14:12:26;38.80;45.40
19164;DHT22;9714;51.208;4.242;2023-06-19T14:14:54;38.10;45.10
19164;DHT22;9714;51.208;4.242;2023-06-19T14:17:22;37.90;46.30
19164;DHT22;9714;51.208;4.242;2023-06-19T14:19:51;38.30;46.10
19164;DHT22;9714;51.208;4.242;2023-06-19T14:22:20;37.70;45.80
19164;DHT22;9714;51.208;4.242;2023-06-19T14:24:48;37.20;46.60
19164;DHT22;9714;51.208;4.242;2023-06-19T14:27:22;37.00;46.90
19164;DHT22;9714;51.208;4.242;2023-06-19T14:29:50;37.40;46.60
19164;DHT22;9714;51.208;4.242;2023-06-19T14:32:22;37.50;46.50
19164;DHT22;9714;51.208;4.242;2023-06-19T14:34:56;37.80;46.60
19164;DHT22;9714;51.208;4.242;2023-06-19T14:37:25;38.00;46.40
19164;DHT22;9714;51.208;4.242;2023-06-19T14:39:53;38.20;46.20
19164;DHT22;9714;51.208;4.242;2023-06-19T14:42:24;37.90;46.50
19164;DHT22;9714;51.208;4.242;2023-06-19T14:44:54;38.10;45.30
19164;DHT22;9714;51.208;4.242;2023-06-19T14:47:28;37.60;45.50
19164;DHT22;9714;51.208;4.242;2023-06-19T14:50:01;37.50;46.40
19164;DHT22;9714;51.208;4.242;2023-06-19T14:52:30;37.00;46.80
19164;DHT22;9714;51.208;4.242;2023-06-19T14:55:01;36.80;46.60
19164;DHT22;9714;51.208;4.242;2023-06-19T14:57:30;36.00;47.30
19164;DHT22;9714;51.208;4.242;2023-06-19T15:00:01;35.20;48.30
19164;DHT22;9714;51.208;4.242;2023-06-19T15:02:30;34.30;49.30
19164;DHT22;9714;51.208;4.242;2023-06-19T15:04:59;34.00;49.80
19164;DHT22;9714;51.208;4.242;2023-06-19T15:07:30;33.70;50.20
19164;DHT22;9714;51.208;4.242;2023-06-19T15:10:00;33.00;51.50
19164;DHT22;9714;51.208;4.242;2023-06-19T15:12:27;32.70;51.60
19164;DHT22;9714;51.208;4.242;2023-06-19T15:14:57;32.40;52.30
19164;DHT22;9714;51.208;4.242;2023-06-19T15:17:25;32.30;52.90
19164;DHT22;9714;51.208;4.242;2023-06-19T15:19:59;32.10;53.00
19164;DHT22;9714;51.208;4.242;2023-06-19T15:22:34;32.10;53.20
19164;DHT22;9714;51.208;4.242;2023-06-19T15:25:05;32.60;52.90
19164;DHT22;9714;51.208;4.242;2023-06-19T15:27:35;33.50;51.60
19164;DHT22;9714;51.208;4.242;2023-06-19T15:30:04;33.30;50.70
19164;DHT22;9714;51.208;4.242;2023-06-19T15:32:32;32.80;51.70
19164;DHT22;9714;51.208;4.242;2023-06-19T15:35:00;32.80;52.00
19164;DHT22;9714;51.208;4.242;2023-06-19T15:37:29;33.40;52.00
19164;DHT22;9714;51.208;4.242;2023-06-19T15:40:01;33.90;51.60
19164;DHT22;9714;51.208;4.242;2023-06-19T15:42:35;34.60;50.50
19164;DHT22;9714;51.208;4.242;2023-06-19T15:45:03;34.40;49.80
19164;DHT22;9714;51.208;4.242;2023-06-19T15:47:34;34.40;50.30
19164;DHT22;9714;51.208;4.242;2023-06-19T15:50:01;34.80;49.90
19164;DHT22;9714;51.208;4.242;2023-06-19T15:52:30;35.20;50.00
19164;DHT22;9714;51.208;4.242;2023-06-19T15:55:00;35.30;48.90
19164;DHT22;9714;51.208;4.242;2023-06-19T15:57:42;36.00;48.70
19164;DHT22;9714;51.208;4.242;2023-06-19T16:00:25;36.10;48.20
19164;DHT22;9714;51.208;4.242;2023-06-19T16:02:53;35.50;48.60
19164;DHT22;9714;51.208;4.242;2023-06-19T16:05:24;35.70;49.10
19164;DHT22;9714;51.208;4.242;2023-06-19T16:07:51;35.20;47.80
19164;DHT22;9714;51.208;4.242;2023-06-19T16:10:29;34.40;49.00
19164;DHT22;9714;51.208;4.242;2023-06-19T16:12:58;33.70;49.90
19164;DHT22;9714;51.208;4.242;2023-06-19T16:15:28;33.10;51.10
19164;DHT22;9714;51.208;4.242;2023-06-19T16:17:59;33.00;51.30
19164;DHT22;9714;51.208;4.242;2023-06-19T16:20:28;32.50;52.60
19164;DHT22;9714;51.208;4.242;2023-06-19T16:22:56;31.90;52.40
19164;DHT22;9714;51.208;4.242;2023-06-19T16:25:24;31.60;52.80
19164;DHT22;9714;51.208;4.242;2023-06-19T16:27:53;31.70;53.20
19164;DHT22;9714;51.208;4.242;2023-06-19T16:30:33;31.40;52.60